createdAt,value
2019-06-20T00:00:06.187Z,17.95
2019-06-20T00:02:36.412Z,17.93
2019-06-20T00:05:07.725Z,17.92
2019-06-20T00:20:57.781Z,17.92
2019-06-20T00:23:29.206Z,17.88
2019-06-20T00:26:00.573Z,17.90
2019-06-20T00:28:32.289Z,17.91
2019-06-20T00:31:02.792Z,17.90
2019-06-20T00:33:34.714Z,17.90
2019-06-20T00:36:06.103Z,17.94
2019-06-20T00:38:37.594Z,18.01
2019-06-20T00:41:08.924Z,17.98
2019-06-20T00:43:39.499Z,17.97
2019-06-20T00:46:10.029Z,17.93
2019-06-20T00:48:40.767Z,17.88
2019-06-20T00:51:11.166Z,17.90
2019-06-20T00:53:41.589Z,17.86
2019-06-20T00:56:11.870Z,17.82
2019-06-20T00:58:42.456Z,17.78
2019-06-20T01:01:12.779Z,17.77
2019-06-20T01:03:43.072Z,17.69
2019-06-20T01:06:13.610Z,17.63
2019-06-20T01:08:43.904Z,17.59
2019-06-20T01:11:14.143Z,17.53
2019-06-20T01:13:44.429Z,17.53
2019-06-20T01:16:14.902Z,17.47
2019-06-20T01:18:45.252Z,17.36
2019-06-20T01:21:16.860Z,17.25
2019-06-20T01:23:47.160Z,17.25
2019-06-20T01:26:17.413Z,17.22
2019-06-20T01:28:48.672Z,17.27
2019-06-20T01:31:20.419Z,17.29
2019-06-20T01:33:50.789Z,17.27
2019-06-20T01:36:21.029Z,17.22
2019-06-20T01:38:51.641Z,17.25
2019-06-20T01:41:22.277Z,17.19
2019-06-20T01:43:52.568Z,17.21
2019-06-20T01:46:22.904Z,17.23
2019-06-20T01:48:53.249Z,17.25
2019-06-20T01:53:13.051Z,17.28
2019-06-20T01:56:02.390Z,17.19
2019-06-20T01:58:51.627Z,17.18
2019-06-20T02:01:40.908Z,17.19
2019-06-20T02:04:30.423Z,17.14
2019-06-20T02:07:19.730Z,17.09
2019-06-20T02:09:50.024Z,17.08
2019-06-20T02:12:20.595Z,17.08
2019-06-20T02:14:50.958Z,17.12
2019-06-20T02:17:21.272Z,17.16
2019-06-20T02:19:51.581Z,17.17
2019-06-20T02:22:40.845Z,17.18
2019-06-20T02:25:30.150Z,17.18
2019-06-20T02:28:00.449Z,17.15
2019-06-20T02:30:31.183Z,17.16
2019-06-20T02:33:01.499Z,17.20
2019-06-20T02:35:51.059Z,17.19
2019-06-20T02:38:40.383Z,17.18
2019-06-20T02:41:30.129Z,17.17
2019-06-20T02:44:00.433Z,17.13
2019-06-20T02:46:40.785Z,17.10
2019-06-20T02:49:30.092Z,17.10
2019-06-20T02:52:00.622Z,17.10
2019-06-20T02:54:30.988Z,17.11
2019-06-20T02:57:20.329Z,17.11
2019-06-20T02:59:51.010Z,17.09
2019-06-20T03:02:21.265Z,17.07
2019-06-20T03:04:51.786Z,17.07
2019-06-20T03:07:22.197Z,17.09
2019-06-20T03:09:52.442Z,17.05
2019-06-20T03:12:22.761Z,17.02
2019-06-20T03:14:54.291Z,17.05
2019-06-20T03:17:43.623Z,17.07
2019-06-20T03:22:56.911Z,17.05
2019-06-20T03:25:27.176Z,17.06
2019-06-20T03:28:16.437Z,17.04
2019-06-20T03:31:06.409Z,17.09
2019-06-20T03:33:55.935Z,17.09
2019-06-20T03:36:45.252Z,17.08
2019-06-20T03:39:34.815Z,17.06
2019-06-20T03:42:15.194Z,17.05
2019-06-20T03:44:58.399Z,17.08
2019-06-20T03:47:36.594Z,17.11
2019-06-20T03:50:26.172Z,17.13
2019-06-20T03:53:15.309Z,17.18
2019-06-20T03:56:04.891Z,17.19
2019-06-20T03:58:54.182Z,16.51
2019-06-20T04:01:24.536Z,17.02
2019-06-20T04:04:13.833Z,17.31
2019-06-20T04:07:03.191Z,17.35
2019-06-20T04:09:52.738Z,17.40
2019-06-20T04:12:42.165Z,17.50
2019-06-20T04:15:19.095Z,17.43
2019-06-20T04:18:03.698Z,17.23
2019-06-20T04:20:53.251Z,17.07
2019-06-20T04:23:42.636Z,16.91
2019-06-20T04:26:12.892Z,16.82
2019-06-20T04:29:02.124Z,16.78
2019-06-20T04:31:32.413Z,16.75
2019-06-20T04:34:21.942Z,16.65
2019-06-20T04:36:53.299Z,16.64
2019-06-20T04:39:23.542Z,16.63
2019-06-20T04:42:12.914Z,16.63
2019-06-20T04:44:56.242Z,16.68
2019-06-20T04:47:26.553Z,16.66
2019-06-20T04:49:57.080Z,16.63
2019-06-20T04:52:27.398Z,16.57
2019-06-20T04:54:57.623Z,16.68
2019-06-20T04:57:28.241Z,16.75
2019-06-20T05:00:04.270Z,16.71
2019-06-20T05:02:34.519Z,16.71
2019-06-20T05:05:23.757Z,16.71
2019-06-20T05:08:13.070Z,16.65
2019-06-20T05:11:02.657Z,16.64
2019-06-20T05:13:52.074Z,15.66
2019-06-20T05:18:58.386Z,16.56
2019-06-20T05:21:40.210Z,16.59
2019-06-20T05:24:10.438Z,16.60
2019-06-20T05:26:59.737Z,16.59
2019-06-20T05:29:49.035Z,16.61
2019-06-20T05:32:19.295Z,16.64
2019-06-20T05:35:09.037Z,16.73
2019-06-20T05:37:39.263Z,16.78
2019-06-20T05:40:10.318Z,16.74
2019-06-20T05:42:59.590Z,16.73
2019-06-20T05:45:29.907Z,16.77
2019-06-20T05:48:19.466Z,16.77
2019-06-20T05:51:08.789Z,16.81
2019-06-20T05:53:39.058Z,16.77
2019-06-20T05:56:28.410Z,16.77
2019-06-20T05:59:17.656Z,16.81
2019-06-20T06:02:07.602Z,16.89
2019-06-20T06:04:56.964Z,16.92
2019-06-20T06:07:27.209Z,16.95
2019-06-20T06:09:57.853Z,17.01
2019-06-20T06:12:29.054Z,17.01
2019-06-20T06:15:00.981Z,17.12
2019-06-20T06:17:31.718Z,17.20
2019-06-20T06:20:21.065Z,17.33
2019-06-20T06:23:11.079Z,17.50
2019-06-20T06:26:00.425Z,17.32
2019-06-20T06:28:30.696Z,17.72
2019-06-20T06:31:20.015Z,17.96
2019-06-20T06:33:50.323Z,18.11
2019-06-20T06:36:39.816Z,18.25
2019-06-20T06:39:29.088Z,18.39
2019-06-20T06:41:59.409Z,18.48
2019-06-20T06:44:48.781Z,18.50
2019-06-20T06:47:26.892Z,18.63
2019-06-20T06:49:57.272Z,18.69
2019-06-20T06:55:27.642Z,18.77
2019-06-20T06:58:17.122Z,18.84
2019-06-20T07:00:47.482Z,18.80
2019-06-20T07:03:36.886Z,18.82
2019-06-20T07:06:07.390Z,18.87
2019-06-20T07:08:37.619Z,19.08
2019-06-20T07:11:26.954Z,19.30
2019-06-20T07:13:57.280Z,19.41
2019-06-20T07:16:27.600Z,19.51
2019-06-20T07:18:58.140Z,19.55
2019-06-20T07:21:28.990Z,19.64
2019-06-20T07:23:59.373Z,19.73
2019-06-20T07:26:49.010Z,19.82
2019-06-20T07:29:19.439Z,19.91
2019-06-20T07:34:26.722Z,20.03
2019-06-20T07:37:16.024Z,20.11
2019-06-20T07:39:46.289Z,20.14
2019-06-20T07:42:17.405Z,20.30
2019-06-20T07:45:08.722Z,20.46
2019-06-20T07:47:40.722Z,20.61
2019-06-20T07:50:11.469Z,20.85
2019-06-20T07:52:41.842Z,20.98
2019-06-20T07:55:12.351Z,20.93
2019-06-20T07:57:53.821Z,21.03
2019-06-20T08:00:24.611Z,21.31
2019-06-20T08:02:55.723Z,21.69
2019-06-20T08:05:26.440Z,22.01
2019-06-20T08:08:16.217Z,22.04
2019-06-20T08:11:05.772Z,22.04
2019-06-20T08:13:36.203Z,22.13
2019-06-20T08:16:08.202Z,22.35
2019-06-20T08:18:39.068Z,22.42
2019-06-20T08:21:33.167Z,22.20
2019-06-20T08:24:23.110Z,21.88
2019-06-20T08:30:51.964Z,21.79
2019-06-20T08:33:42.286Z,22.30
2019-06-20T08:36:32.019Z,22.80
2019-06-20T08:39:02.678Z,23.48
2019-06-20T08:41:34.036Z,23.51
2019-06-20T08:44:23.734Z,23.34
2019-06-20T08:46:56.439Z,23.12
2019-06-20T08:49:28.691Z,23.43
2019-06-20T08:52:18.691Z,24.00
2019-06-20T08:55:28.590Z,23.75
2019-06-20T08:58:17.929Z,23.55
2019-06-20T09:03:43.827Z,22.72
2019-06-20T09:06:33.851Z,22.62
2019-06-20T09:09:23.692Z,22.48
2019-06-20T09:11:55.031Z,22.39
2019-06-20T09:14:45.019Z,22.37
2019-06-20T09:17:15.706Z,22.36
2019-06-20T09:20:05.846Z,22.36
2019-06-20T09:22:55.289Z,22.66
2019-06-20T09:25:25.974Z,22.81
2019-06-20T09:31:14.708Z,22.64
2019-06-20T09:34:07.512Z,22.56
2019-06-20T09:37:00.850Z,22.57
2019-06-20T09:42:30.267Z,22.98
2019-06-20T09:45:16.128Z,23.36
2019-06-20T09:47:46.929Z,23.89
2019-06-20T09:50:18.174Z,25.04
2019-06-20T09:53:07.838Z,25.93
2019-06-20T09:55:38.517Z,26.39
2019-06-20T09:58:28.186Z,27.36
2019-06-20T10:00:58.750Z,27.62
2019-06-20T10:03:48.944Z,27.34
2019-06-20T10:06:20.814Z,26.04
2019-06-20T10:08:54.348Z,25.62
2019-06-20T10:11:24.710Z,25.22
2019-06-20T10:13:56.074Z,24.84
2019-06-20T10:16:26.382Z,24.53
2019-06-20T10:18:56.935Z,24.45
2019-06-20T10:21:27.219Z,25.43
2019-06-20T10:23:57.857Z,26.26
2019-06-20T10:26:29.002Z,27.01
2019-06-20T10:28:59.603Z,27.20
2019-06-20T10:31:31.259Z,27.53
2019-06-20T10:34:23.662Z,27.73
2019-06-20T10:37:20.436Z,27.88
2019-06-20T10:40:34.287Z,27.91
2019-06-20T10:43:23.762Z,28.39
2019-06-20T10:46:13.950Z,27.83
2019-06-20T10:49:03.460Z,28.21
2019-06-20T10:51:54.608Z,28.56
2019-06-20T10:54:45.303Z,27.98
2019-06-20T10:57:18.728Z,27.97
2019-06-20T10:59:50.812Z,27.77
2019-06-20T11:02:21.783Z,27.30
2019-06-20T11:04:53.215Z,27.44
2019-06-20T11:07:23.689Z,27.50
2019-06-20T11:10:13.750Z,27.15
2019-06-20T11:13:03.232Z,27.03
2019-06-20T11:15:52.121Z,26.57
2019-06-20T11:18:22.653Z,26.14
2019-06-20T11:20:53.070Z,25.89
2019-06-20T11:23:23.559Z,25.73
2019-06-20T11:26:14.213Z,26.35
2019-06-20T11:28:44.801Z,26.63
2019-06-20T11:31:15.998Z,27.53
2019-06-20T11:33:49.162Z,27.88
2019-06-20T11:36:20.035Z,27.00
2019-06-20T11:38:53.411Z,27.98
2019-06-20T11:41:25.192Z,28.12
2019-06-20T11:43:57.883Z,27.96
2019-06-20T11:46:47.446Z,28.05
2019-06-20T11:49:29.309Z,27.68
2019-06-20T11:52:09.424Z,26.80
2019-06-20T11:55:00.998Z,26.13
2019-06-20T11:57:31.867Z,25.50
2019-06-20T12:00:02.413Z,25.00
2019-06-20T12:02:52.066Z,24.70
2019-06-20T12:05:53.220Z,24.36
2019-06-20T12:08:45.310Z,23.99
2019-06-20T12:11:47.002Z,24.16
2019-06-20T12:14:39.728Z,24.34
2019-06-20T12:17:11.564Z,24.30
2019-06-20T12:20:01.826Z,24.08
2019-06-20T12:22:32.675Z,23.92
2019-06-20T12:25:03.124Z,23.82
2019-06-20T12:27:53.438Z,23.67
2019-06-20T12:30:43.575Z,23.56
2019-06-20T12:33:33.208Z,23.09
2019-06-20T12:36:03.649Z,23.47
2019-06-20T12:41:30.762Z,23.35
2019-06-20T12:44:02.718Z,23.32
2019-06-20T12:46:52.434Z,23.35
2019-06-20T12:49:24.081Z,23.33
2019-06-20T12:52:20.559Z,23.31
2019-06-20T12:55:12.208Z,23.17
2019-06-20T12:58:08.936Z,23.11
2019-06-20T13:00:41.612Z,23.08
2019-06-20T13:03:31.223Z,23.01
2019-06-20T13:06:20.589Z,22.95
2019-06-20T13:09:10.165Z,23.06
2019-06-20T13:12:00.082Z,23.14
2019-06-20T13:17:13.731Z,23.34
2019-06-20T13:20:03.257Z,23.36
2019-06-20T13:22:59.893Z,23.28
2019-06-20T13:25:50.480Z,23.20
2019-06-20T13:28:59.150Z,23.12
2019-06-20T13:32:02.071Z,22.34
2019-06-20T13:35:03.632Z,22.17
2019-06-20T13:37:53.114Z,22.77
2019-06-20T13:41:03.647Z,22.29
2019-06-20T13:43:53.289Z,22.75
2019-06-20T13:46:25.249Z,22.73
2019-06-20T13:49:14.843Z,22.78
2019-06-20T13:51:45.952Z,22.83
2019-06-20T13:54:36.014Z,23.00
2019-06-20T13:57:25.958Z,23.18
2019-06-20T14:00:18.447Z,23.34
2019-06-20T14:02:51.466Z,23.28
2019-06-20T14:05:24.351Z,23.68
2019-06-20T14:14:19.918Z,24.59
2019-06-20T14:19:46.908Z,24.04
2019-06-20T14:27:58.540Z,24.36
2019-06-20T14:33:18.998Z,24.63
2019-06-20T14:35:51.202Z,24.40
2019-06-20T14:38:41.451Z,24.25
2019-06-20T14:41:31.393Z,24.11
2019-06-20T14:44:02.711Z,24.29
2019-06-20T14:46:33.165Z,24.58
2019-06-20T14:52:07.205Z,24.16
2019-06-20T14:54:38.534Z,24.10
2019-06-20T15:00:24.605Z,23.88
2019-06-20T15:03:33.622Z,23.77
2019-06-20T15:09:04.857Z,23.97
2019-06-20T15:14:23.080Z,23.85
2019-06-20T15:17:03.812Z,23.51
2019-06-20T15:19:56.594Z,23.31
2019-06-20T15:25:17.058Z,22.58
2019-06-20T15:28:08.003Z,23.07
2019-06-20T15:30:38.370Z,23.45
2019-06-20T15:33:10.629Z,23.85
2019-06-20T15:36:00.045Z,23.46
2019-06-20T15:38:51.112Z,23.17
2019-06-20T15:41:22.271Z,23.03
2019-06-20T15:43:53.782Z,23.25
2019-06-20T15:46:24.973Z,23.30
2019-06-20T15:49:15.639Z,23.08
2019-06-20T15:51:52.106Z,22.89
2019-06-20T15:54:24.559Z,22.62
2019-06-20T15:56:55.043Z,22.62
2019-06-20T15:59:25.882Z,23.18
2019-06-20T16:02:15.484Z,23.85
2019-06-20T16:05:05.509Z,24.20
2019-06-20T16:07:55.658Z,23.98
2019-06-20T16:10:46.850Z,23.71
2019-06-20T16:13:17.432Z,23.55
2019-06-20T16:19:27.046Z,22.94
2019-06-20T16:26:11.673Z,22.17
2019-06-20T16:29:03.951Z,21.96
2019-06-20T16:35:17.463Z,21.71
2019-06-20T16:38:08.484Z,21.66
2019-06-20T16:40:58.906Z,21.64
2019-06-20T16:44:02.446Z,22.12
2019-06-20T16:46:34.025Z,22.75
2019-06-20T16:54:43.985Z,23.33
2019-06-20T16:57:38.297Z,23.36
2019-06-20T17:00:30.760Z,23.31
2019-06-20T17:03:41.642Z,23.31
2019-06-20T17:15:00.206Z,23.17
2019-06-20T17:21:01.880Z,23.02
2019-06-20T17:23:32.695Z,22.93
2019-06-20T17:29:21.128Z,22.89
2019-06-20T17:31:57.315Z,22.12
2019-06-20T17:34:26.511Z,22.77
2019-06-20T17:36:58.597Z,22.69
2019-06-20T17:39:31.957Z,22.56
2019-06-20T17:42:03.691Z,22.41
2019-06-20T17:44:34.197Z,22.34
2019-06-20T17:49:47.621Z,22.17
2019-06-20T17:52:17.966Z,22.12
2019-06-20T17:58:24.004Z,22.02
2019-06-20T18:01:13.680Z,21.95
2019-06-20T18:04:13.349Z,21.91
2019-06-20T18:06:54.789Z,21.93
2019-06-20T18:09:44.208Z,21.24
2019-06-20T18:12:17.117Z,22.03
2019-06-20T18:14:48.915Z,22.16
2019-06-20T18:17:20.249Z,22.22
2019-06-20T18:19:51.252Z,22.34
2019-06-20T18:22:21.716Z,22.44
2019-06-20T18:24:52.444Z,22.58
2019-06-20T18:27:41.918Z,22.59
2019-06-20T18:30:54.298Z,22.11
2019-06-20T18:33:25.772Z,22.42
2019-06-20T18:36:15.059Z,22.24
2019-06-20T18:39:07.942Z,22.20
2019-06-20T18:41:57.650Z,22.01
2019-06-20T18:44:49.022Z,21.86
2019-06-20T18:47:39.848Z,21.76
2019-06-20T18:50:21.923Z,21.52
2019-06-20T18:53:03.972Z,21.34
2019-06-20T18:55:46.328Z,21.19
2019-06-20T18:58:28.812Z,21.15
2019-06-20T19:01:10.234Z,21.10
2019-06-20T19:03:52.508Z,21.06
2019-06-20T19:06:35.595Z,20.96
2019-06-20T19:09:10.548Z,20.90
2019-06-20T19:11:32.822Z,20.80
2019-06-20T19:14:07.586Z,20.68
2019-06-20T19:16:39.090Z,20.57
2019-06-20T19:22:31.764Z,20.40
2019-06-20T19:25:21.258Z,20.42
2019-06-20T19:27:52.035Z,20.44
2019-06-20T19:31:00.775Z,20.38
2019-06-20T19:33:31.678Z,20.31
2019-06-20T19:36:02.030Z,20.23
2019-06-20T19:38:44.888Z,20.16
2019-06-20T19:41:15.498Z,20.12
2019-06-20T19:47:07.915Z,20.10
2019-06-20T19:49:38.347Z,20.07
2019-06-20T19:52:10.278Z,20.01
2019-06-20T19:54:48.253Z,19.96
2019-06-20T19:57:20.588Z,19.92
2019-06-20T20:02:55.373Z,19.85
2019-06-20T20:05:45.331Z,19.84
2019-06-20T20:08:18.287Z,19.82
2019-06-20T20:10:50.683Z,19.79
2019-06-20T20:13:40.803Z,19.82
2019-06-20T20:16:13.056Z,19.77
2019-06-20T20:18:54.322Z,19.70
2019-06-20T20:24:10.260Z,19.53
2019-06-20T20:26:40.548Z,19.46
2019-06-20T20:29:30.361Z,19.44
2019-06-20T20:32:21.619Z,19.47
2019-06-20T20:38:30.962Z,19.78
2019-06-20T20:41:20.313Z,19.31
2019-06-20T20:44:03.135Z,20.06
2019-06-20T20:46:35.267Z,20.10
2019-06-20T20:49:33.463Z,20.03
2019-06-20T20:52:16.699Z,19.86
2019-06-20T20:55:14.724Z,19.63
2019-06-20T20:57:47.274Z,19.48
2019-06-20T21:00:25.583Z,19.33
2019-06-20T21:03:15.071Z,19.16
2019-06-20T21:05:51.377Z,19.10
2019-06-20T21:08:46.125Z,19.00
2019-06-20T21:11:20.126Z,18.94
2019-06-20T21:13:58.951Z,18.95
2019-06-20T21:16:29.551Z,18.90
2019-06-20T21:18:59.962Z,18.86
2019-06-20T21:21:52.115Z,18.78
2019-06-20T21:24:50.487Z,18.73
2019-06-20T21:33:44.227Z,18.73
2019-06-20T21:36:34.509Z,18.71
2019-06-20T21:39:39.548Z,18.68
2019-06-20T21:42:28.935Z,18.67
2019-06-20T21:45:00.338Z,18.64
2019-06-20T21:47:49.591Z,18.66
2019-06-20T21:50:38.889Z,18.60
2019-06-20T21:53:12.669Z,18.61
2019-06-20T21:56:02.438Z,18.60
2019-06-20T21:58:52.551Z,18.61
2019-06-20T22:01:23.718Z,18.63
2019-06-20T22:03:54.379Z,18.63
2019-06-20T22:06:24.786Z,18.68
2019-06-20T22:09:14.135Z,18.70
2019-06-20T22:12:13.973Z,18.69
2019-06-20T22:15:03.750Z,17.92
2019-06-20T22:17:48.242Z,18.70
2019-06-20T22:20:10.998Z,18.67
2019-06-20T22:23:01.552Z,18.65
2019-06-20T22:25:37.066Z,18.67
2019-06-20T22:28:27.937Z,18.69
2019-06-20T22:33:55.806Z,18.59
2019-06-20T22:36:39.163Z,17.79
2019-06-20T22:38:59.202Z,18.47
2019-06-20T22:41:48.779Z,18.45
2019-06-20T22:44:19.122Z,18.40
2019-06-20T22:46:49.632Z,18.37
2019-06-20T22:49:20.752Z,18.32
2019-06-20T22:52:01.140Z,18.31
2019-06-20T22:54:31.738Z,18.31
2019-06-20T22:57:21.465Z,18.30
2019-06-20T23:00:11.838Z,18.27
2019-06-20T23:02:42.471Z,18.29
2019-06-20T23:05:31.701Z,18.33
2019-06-20T23:08:21.040Z,18.31
2019-06-20T23:11:10.683Z,18.36
2019-06-20T23:13:41.055Z,18.33
2019-06-20T23:16:23.294Z,18.25
2019-06-20T23:19:02.977Z,18.20
2019-06-20T23:21:33.267Z,18.21
2019-06-20T23:26:53.377Z,18.11
2019-06-20T23:29:23.675Z,18.10
2019-06-20T23:31:54.730Z,18.07
2019-06-20T23:34:44.177Z,18.07
2019-06-20T23:37:33.487Z,18.03
2019-06-20T23:40:04.107Z,17.95
2019-06-20T23:42:34.719Z,17.93
2019-06-20T23:48:21.318Z,17.83
2019-06-20T23:51:24.728Z,17.77
2019-06-20T23:53:53.083Z,17.74
2019-06-20T23:56:23.421Z,17.67
2019-06-20T23:59:12.708Z,17.66
